Beaufort, SC

4:15 AM EST on February 14, 2016 (GMT -0500)
Distant Island | | Change Station
CLOSE
Current Station
Personal Weather Station
Location: Beaufort, SC
Elevation: 15 ft
Nearby Weather Stations

Elev 15 ft 32.38 °N, 80.63 °W | Updated 4 seconds ago

Clear
Clear
35.4 °F
Feels Like 30 °F
N
5.8
Wind Variable Wind from NNE
Gusts 7.4 mph

Today
High -- | Low -- °F
--% Chance of Precip.
Yesterday
High -- | Low -- °F
Precip. -- in
Pressure 30.38 in
Visibility 10.0 miles
Clouds Clear
Windchill 30 °F
Dew Point 19 °F
Humidity 51%
Rainfall 0.00 in
Snow Depth Not available.
7:06 AM 6:07 PM
Waxing Crescent, 39% visible
METAR KARW 140915Z AUTO 04016G20KT 10SM CLR 01/M07 A3038 RMK AO2
Pressure 30.38 in
Visibility 10.0 miles
Clouds Clear
Windchill 30 °F
Dew Point 19 °F
Humidity 51%
Rainfall 0.00 in
Snow Depth Not available.
7:06 AM 6:07 PM
Waxing Crescent, 39% visible
METAR KARW 140915Z AUTO 04016G20KT 10SM CLR 01/M07 A3038 RMK AO2

10-Day Weather Forecast

Almanac

Astronomy

Feb. 14, 2016 Rise Set
Actual Time
Civil Twilight
Nautical Twilight
Astronomical Twilight
Moon
Length of Visible Light
Length of Day
Tomorrow will be .
, % of the Moon is Illuminated

Today's Extremes

State Highs State Lows

Community

WunderPhotos

Upload Photos

1,892,763 photos uploaded!

WunderBlog® & News

Nearby

Air Quality

  Air Quality AQ Index Pollutant
Not available.

Snow Depth

Station Depth Elevation

Earthquake Activity

City Distance Mag. Time & Date
Minimum magnitude displayed is 2.5.

Coastal Water Temperatures

Place Temperature

Stations

Nearby Weather Stations

Station Location Temp. Windchill Dew Point Humidity Wind Precip. Elev Updated Type
                   

Watches & Warnings

There are currently no watches in effect.